createdAt,value
2018-12-13T00:00:25.096Z,47.20
2018-12-13T00:09:26.409Z,46.07
2018-12-13T00:11:57.156Z,46.70
2018-12-13T00:14:27.828Z,48.27
2018-12-13T00:16:58.447Z,46.30
2018-12-13T00:19:29.049Z,42.67
2018-12-13T00:21:59.924Z,41.37
2018-12-13T00:24:30.772Z,45.87
2018-12-13T00:27:01.317Z,42.90
2018-12-13T00:29:31.909Z,42.37
2018-12-13T00:32:02.480Z,41.90
2018-12-13T00:34:33.026Z,42.37
2018-12-13T00:37:03.605Z,39.60
2018-12-13T00:39:34.270Z,42.03
2018-12-13T00:42:04.846Z,42.33
2018-12-13T00:44:35.489Z,39.77
2018-12-13T00:47:06.164Z,44.53
2018-12-13T00:49:36.763Z,41.10
2018-12-13T00:52:07.290Z,42.23
2018-12-13T00:54:37.826Z,41.97
2018-12-13T00:57:08.352Z,40.30
2018-12-13T00:59:39.008Z,39.07
2018-12-13T01:02:09.546Z,43.73
2018-12-13T01:04:40.348Z,40.47
2018-12-13T01:07:11.376Z,43.77
2018-12-13T01:09:42.070Z,43.70
2018-12-13T01:12:12.579Z,45.37
2018-12-13T01:14:43.118Z,42.47
2018-12-13T01:17:13.646Z,41.37
2018-12-13T01:19:44.176Z,46.17
2018-12-13T01:22:14.647Z,38.43
2018-12-13T01:24:45.140Z,36.43
2018-12-13T01:27:15.701Z,45.80
2018-12-13T01:29:46.212Z,47.50
2018-12-13T01:32:16.754Z,42.00
2018-12-13T01:34:47.296Z,43.27
2018-12-13T01:37:17.807Z,44.93
2018-12-13T01:39:48.358Z,43.90
2018-12-13T01:42:18.942Z,42.70
2018-12-13T01:44:49.563Z,41.60
2018-12-13T01:47:20.509Z,39.03
2018-12-13T01:49:51.049Z,39.43
2018-12-13T01:52:21.614Z,38.97
2018-12-13T01:54:52.176Z,39.27
2018-12-13T01:57:22.809Z,41.07
2018-12-13T01:59:53.274Z,42.03
2018-12-13T02:02:23.780Z,40.20
2018-12-13T02:04:54.335Z,44.23
2018-12-13T02:07:24.905Z,40.10
2018-12-13T02:09:55.506Z,41.93
2018-12-13T02:12:26.078Z,36.33
2018-12-13T02:14:56.641Z,37.87
2018-12-13T02:17:27.190Z,41.20
2018-12-13T02:19:57.714Z,38.67
2018-12-13T02:22:28.284Z,37.77
2018-12-13T02:24:58.993Z,39.27
2018-12-13T02:27:29.517Z,37.60
2018-12-13T02:30:00.118Z,37.57
2018-12-13T02:32:30.683Z,38.63
2018-12-13T02:35:01.717Z,40.70
2018-12-13T02:37:32.751Z,36.00
2018-12-13T02:40:03.377Z,47.13
2018-12-13T02:42:33.990Z,36.40
2018-12-13T02:45:04.577Z,38.10
2018-12-13T02:47:35.273Z,40.27
2018-12-13T02:50:07.133Z,41.63
2018-12-13T02:52:37.824Z,37.20
2018-12-13T02:55:08.389Z,41.20
2018-12-13T02:57:38.970Z,39.63
2018-12-13T03:00:09.603Z,36.70
2018-12-13T03:02:42.230Z,46.17
2018-12-13T03:05:12.922Z,37.00
2018-12-13T03:07:43.481Z,43.00
2018-12-13T03:10:14.040Z,46.90
2018-12-13T03:12:45.244Z,41.23
2018-12-13T03:15:15.778Z,40.40
2018-12-13T03:17:46.338Z,35.03
2018-12-13T03:20:16.946Z,32.97
2018-12-13T03:22:47.470Z,34.13
2018-12-13T03:25:18.017Z,37.00
2018-12-13T03:27:48.545Z,35.73
2018-12-13T03:30:19.183Z,34.87
2018-12-13T03:32:49.966Z,30.97
2018-12-13T03:35:20.513Z,30.43
2018-12-13T03:37:53.070Z,30.57
2018-12-13T03:40:23.620Z,32.07
2018-12-13T03:42:54.346Z,33.40
2018-12-13T03:45:24.894Z,32.93
2018-12-13T03:47:55.386Z,32.97
2018-12-13T03:50:25.937Z,33.53
2018-12-13T03:52:56.487Z,37.10
2018-12-13T03:55:27.030Z,39.77
2018-12-13T03:57:57.579Z,38.60
2018-12-13T04:00:28.219Z,42.97
2018-12-13T04:02:58.761Z,33.50
2018-12-13T04:05:29.329Z,33.87
2018-12-13T04:08:01.008Z,35.33
2018-12-13T04:10:31.659Z,32.07
2018-12-13T04:13:02.218Z,30.30
2018-12-13T04:15:32.950Z,34.23
2018-12-13T04:18:03.527Z,32.17
2018-12-13T04:20:36.082Z,28.27
2018-12-13T04:23:06.721Z,26.13
2018-12-13T04:25:37.310Z,26.50
2018-12-13T04:28:07.911Z,26.57
2018-12-13T04:30:38.444Z,32.57
2018-12-13T04:33:08.949Z,32.90
2018-12-13T04:35:39.476Z,37.50
2018-12-13T04:38:10.005Z,42.77
2018-12-13T04:40:40.577Z,45.40
2018-12-13T04:43:11.166Z,45.20
2018-12-13T04:45:41.797Z,51.83
2018-12-13T04:48:12.343Z,46.57
2018-12-13T04:50:42.867Z,53.30
2018-12-13T04:53:13.425Z,40.77
2018-12-13T04:55:43.992Z,37.13
2018-12-13T04:58:14.535Z,35.57
2018-12-13T05:00:45.293Z,32.63
2018-12-13T05:03:15.802Z,31.47
2018-12-13T05:05:46.418Z,36.27
2018-12-13T05:08:17.941Z,34.57
2018-12-13T05:10:54.533Z,35.60
2018-12-13T05:13:25.183Z,30.80
2018-12-13T05:15:55.696Z,31.67
2018-12-13T05:18:26.282Z,31.70
2018-12-13T05:20:56.785Z,31.03
2018-12-13T05:23:27.274Z,30.03
2018-12-13T05:25:57.827Z,36.03
2018-12-13T05:28:28.381Z,28.90
2018-12-13T05:30:58.914Z,36.47
2018-12-13T05:33:29.480Z,36.60
2018-12-13T05:35:59.991Z,39.50
2018-12-13T05:38:30.574Z,40.03
2018-12-13T05:41:01.260Z,38.43
2018-12-13T05:43:31.798Z,43.13
2018-12-13T05:46:02.569Z,49.37
2018-12-13T05:48:33.224Z,51.23
2018-12-13T05:51:04.098Z,47.07
2018-12-13T05:53:34.600Z,60.00
2018-12-13T05:56:05.262Z,55.37
2018-12-13T05:58:35.829Z,49.30
2018-12-13T06:01:06.468Z,43.20
2018-12-13T06:03:37.017Z,38.43
2018-12-13T06:06:07.610Z,41.73
2018-12-13T06:08:38.274Z,44.47
2018-12-13T06:11:09.194Z,46.00
2018-12-13T06:13:39.827Z,41.90
2018-12-13T06:16:10.356Z,33.77
2018-12-13T06:18:41.023Z,38.30
2018-12-13T06:21:11.901Z,33.17
2018-12-13T06:23:42.770Z,22.07
2018-12-13T06:26:13.355Z,33.30
2018-12-13T06:28:44.517Z,36.10
2018-12-13T06:31:15.207Z,42.30
2018-12-13T06:33:45.863Z,34.60
2018-12-13T06:36:17.204Z,38.87
2018-12-13T06:38:47.890Z,37.07
2018-12-13T06:41:18.671Z,42.03
2018-12-13T06:43:49.363Z,29.27
2018-12-13T06:46:19.935Z,39.07
2018-12-13T06:48:50.580Z,44.87
2018-12-13T06:51:21.298Z,42.27
2018-12-13T06:53:51.900Z,34.93
2018-12-13T06:56:22.655Z,38.40
2018-12-13T06:58:53.238Z,29.60
2018-12-13T07:01:23.966Z,28.87
2018-12-13T07:03:54.639Z,39.67
2018-12-13T07:06:25.307Z,47.93
2018-12-13T07:08:55.897Z,33.93
2018-12-13T07:11:26.692Z,36.10
2018-12-13T07:13:57.362Z,32.43
2018-12-13T07:16:29.957Z,34.37
2018-12-13T07:19:00.788Z,32.33
2018-12-13T07:21:31.908Z,40.40
2018-12-13T07:24:02.726Z,38.67
2018-12-13T07:26:33.394Z,38.33
2018-12-13T07:32:10.115Z,41.77
2018-12-13T07:34:41.541Z,50.00
2018-12-13T07:37:14.915Z,37.13
2018-12-13T07:39:45.530Z,34.17
2018-12-13T07:42:16.451Z,50.47
2018-12-13T07:44:47.138Z,37.97
2018-12-13T07:47:17.813Z,38.97
2018-12-13T07:49:48.464Z,39.27
2018-12-13T07:52:19.147Z,39.20
2018-12-13T07:54:49.754Z,43.40
2018-12-13T07:57:20.409Z,42.67
2018-12-13T07:59:51.201Z,43.80
2018-12-13T08:02:21.835Z,45.90
2018-12-13T08:04:52.518Z,55.70
2018-12-13T08:07:23.104Z,49.50
2018-12-13T08:09:53.775Z,44.07
2018-12-13T08:12:24.544Z,45.27
2018-12-13T08:14:55.053Z,45.63
2018-12-13T08:17:25.593Z,43.70
2018-12-13T08:19:58.196Z,45.17
2018-12-13T08:22:28.763Z,35.33
2018-12-13T08:24:59.399Z,38.93
2018-12-13T08:27:29.911Z,33.80
2018-12-13T08:30:00.553Z,33.90
2018-12-13T08:32:31.150Z,30.37
2018-12-13T08:35:01.692Z,32.23
2018-12-13T08:37:32.282Z,28.57
2018-12-13T08:40:02.899Z,26.87
2018-12-13T08:42:34.844Z,29.17
2018-12-13T08:45:05.713Z,32.30
2018-12-13T08:50:23.190Z,30.17
2018-12-13T08:52:54.177Z,34.57
2018-12-13T08:55:24.686Z,34.47
2018-12-13T08:57:55.279Z,32.50
2018-12-13T09:00:25.789Z,32.60
2018-12-13T09:02:56.298Z,35.70
2018-12-13T09:05:26.886Z,30.30
2018-12-13T09:07:57.358Z,35.93
2018-12-13T09:10:27.903Z,43.13
2018-12-13T09:12:58.615Z,31.90
2018-12-13T09:15:29.574Z,29.13
2018-12-13T09:18:00.200Z,39.63
2018-12-13T09:20:30.718Z,37.30
2018-12-13T09:23:01.298Z,36.30
2018-12-13T09:25:31.959Z,42.03
2018-12-13T09:28:02.585Z,50.37
2018-12-13T09:30:33.529Z,31.03
2018-12-13T09:33:04.531Z,22.77
2018-12-13T09:35:35.229Z,26.57
2018-12-13T09:38:06.559Z,21.20
2018-12-13T09:40:37.132Z,20.73
2018-12-13T09:43:07.732Z,18.37
2018-12-13T09:45:38.247Z,23.17
2018-12-13T09:48:08.783Z,29.60
2018-12-13T09:50:39.559Z,31.90
2018-12-13T09:53:11.716Z,26.57
2018-12-13T09:55:42.203Z,34.20
2018-12-13T09:58:12.866Z,23.27
2018-12-13T10:00:43.392Z,17.57
2018-12-13T10:03:15.077Z,24.63
2018-12-13T10:05:45.647Z,58.50
2018-12-13T10:08:16.557Z,39.43
2018-12-13T10:10:47.085Z,26.93
2018-12-13T10:13:17.800Z,30.20
2018-12-13T10:15:48.270Z,52.87
2018-12-13T10:18:18.852Z,17.53
2018-12-13T10:20:49.361Z,34.20
2018-12-13T10:23:19.976Z,44.83
2018-12-13T10:25:50.790Z,32.97
2018-12-13T10:28:21.421Z,26.93
2018-12-13T10:30:51.968Z,21.73
2018-12-13T10:33:22.452Z,18.30
2018-12-13T10:35:53.014Z,24.73
2018-12-13T10:38:23.523Z,33.20
2018-12-13T10:40:54.088Z,19.93
2018-12-13T10:43:24.893Z,16.77
2018-12-13T10:45:55.429Z,27.83
2018-12-13T10:48:25.977Z,21.77
2018-12-13T10:50:56.626Z,17.83
2018-12-13T10:53:27.216Z,22.27
2018-12-13T10:55:57.799Z,31.60
2018-12-13T10:58:28.351Z,25.07
2018-12-13T11:01:04.028Z,24.70
2018-12-13T11:03:36.516Z,22.90
2018-12-13T11:06:07.070Z,26.40
2018-12-13T11:08:37.540Z,23.90
2018-12-13T11:11:08.098Z,21.37
2018-12-13T11:13:38.584Z,46.00
2018-12-13T11:16:09.117Z,28.60
2018-12-13T11:18:39.627Z,40.47
2018-12-13T11:21:10.166Z,35.00
2018-12-13T11:23:40.672Z,24.30
2018-12-13T11:26:11.156Z,20.37
2018-12-13T11:29:57.247Z,24.17
2018-12-13T11:32:27.771Z,25.63
2018-12-13T11:34:58.290Z,20.40
2018-12-13T11:37:30.024Z,21.67
2018-12-13T11:40:00.519Z,18.33
2018-12-13T11:42:31.014Z,23.67
2018-12-13T11:45:01.562Z,10.30
2018-12-13T11:47:32.571Z,13.97
2018-12-13T11:50:03.119Z,21.70
2018-12-13T11:52:33.645Z,17.63
2018-12-13T11:55:16.510Z,17.30
2018-12-13T11:57:48.150Z,19.77
2018-12-13T12:00:19.100Z,23.27
2018-12-13T12:02:50.712Z,24.77
2018-12-13T12:05:21.243Z,21.87
2018-12-13T12:07:51.729Z,17.23
2018-12-13T12:10:22.293Z,23.40
2018-12-13T12:12:52.800Z,22.10
2018-12-13T12:15:23.309Z,34.17
2018-12-13T12:17:53.874Z,47.73
2018-12-13T12:20:24.507Z,47.30
2018-12-13T12:22:54.994Z,57.30
2018-12-13T12:25:25.816Z,30.47
2018-12-13T12:27:57.502Z,38.67
2018-12-13T12:30:28.279Z,38.30
2018-12-13T12:32:58.726Z,48.17
2018-12-13T12:35:29.243Z,48.37
2018-12-13T12:37:59.719Z,46.37
2018-12-13T12:40:30.178Z,31.90
2018-12-13T12:43:00.717Z,25.43
2018-12-13T12:45:31.265Z,31.83
2018-12-13T12:48:01.947Z,18.97
2018-12-13T12:50:32.557Z,27.03
2018-12-13T12:53:03.141Z,33.17
2018-12-13T12:55:33.836Z,34.47
2018-12-13T12:58:04.539Z,26.83
2018-12-13T13:00:35.125Z,30.03
2018-12-13T13:03:05.703Z,19.73
2018-12-13T13:05:36.207Z,24.40
2018-12-13T13:08:06.720Z,21.43
2018-12-13T13:10:37.231Z,14.67
2018-12-13T13:13:07.761Z,25.03
2018-12-13T13:15:38.255Z,33.67
2018-12-13T13:18:08.836Z,25.10
2018-12-13T13:20:39.514Z,38.30
2018-12-13T13:23:10.098Z,24.73
2018-12-13T13:25:40.634Z,25.33
2018-12-13T13:28:11.226Z,30.40
2018-12-13T13:30:41.885Z,24.00
2018-12-13T13:33:15.383Z,25.67
2018-12-13T13:35:45.961Z,25.87
2018-12-13T13:38:16.489Z,34.57
2018-12-13T13:40:48.074Z,28.03
2018-12-13T13:43:18.744Z,20.40
2018-12-13T13:45:49.287Z,26.63
2018-12-13T13:48:20.529Z,29.80
2018-12-13T13:50:53.045Z,28.00
2018-12-13T13:53:23.551Z,37.80
2018-12-13T13:55:54.100Z,36.27
2018-12-13T13:58:25.612Z,26.37
2018-12-13T14:00:57.503Z,36.80
2018-12-13T14:03:29.088Z,25.60
2018-12-13T14:05:59.856Z,45.77
2018-12-13T14:08:32.423Z,40.33
2018-12-13T14:11:04.250Z,30.47
2018-12-13T14:13:35.083Z,35.43
2018-12-13T14:16:06.622Z,45.10
2018-12-13T14:18:38.814Z,40.07
2018-12-13T14:21:10.670Z,40.33
2018-12-13T14:23:43.747Z,32.43
2018-12-13T14:26:16.217Z,37.63
2018-12-13T14:28:46.839Z,43.67
2018-12-13T14:31:17.454Z,33.40
2018-12-13T14:33:48.070Z,29.97
2018-12-13T14:36:19.023Z,52.53
2018-12-13T14:38:49.593Z,43.33
2018-12-13T14:41:22.654Z,27.47
2018-12-13T14:44:12.400Z,26.60
2018-12-13T14:46:42.896Z,34.20
2018-12-13T14:49:13.717Z,41.57
2018-12-13T14:54:31.837Z,48.33
2018-12-13T14:57:03.110Z,73.13
2018-12-13T14:59:33.950Z,79.87
2018-12-13T15:02:05.985Z,65.33
2018-12-13T15:04:37.619Z,52.60
2018-12-13T15:07:09.902Z,48.80
2018-12-13T15:09:40.592Z,56.63
2018-12-13T15:12:11.409Z,48.40
2018-12-13T15:14:42.383Z,49.87
2018-12-13T15:17:13.015Z,44.60
2018-12-13T15:19:43.530Z,48.47
2018-12-13T15:22:14.179Z,45.07
2018-12-13T15:24:44.869Z,48.73
2018-12-13T15:27:15.483Z,41.17
2018-12-13T15:29:46.156Z,42.83
2018-12-13T15:32:16.982Z,29.37
2018-12-13T15:34:47.461Z,27.57
2018-12-13T15:37:18.017Z,33.93
2018-12-13T15:39:48.831Z,24.07
2018-12-13T15:42:19.507Z,24.27
2018-12-13T15:44:50.266Z,33.10
2018-12-13T15:47:20.975Z,30.20
2018-12-13T15:49:51.638Z,32.17
2018-12-13T15:52:22.418Z,30.23
2018-12-13T15:54:53.437Z,31.37
2018-12-13T15:57:25.231Z,46.50
2018-12-13T15:59:55.964Z,68.07
2018-12-13T16:02:28.581Z,60.63
2018-12-13T16:04:59.399Z,63.83
2018-12-13T16:07:30.164Z,56.47
2018-12-13T16:10:04.107Z,49.97
2018-12-13T16:12:34.046Z,48.40
2018-12-13T16:15:07.207Z,42.57
2018-12-13T16:17:38.014Z,44.67
2018-12-13T16:20:08.722Z,42.17
2018-12-13T16:22:45.906Z,38.23
2018-12-13T16:25:16.566Z,45.30
2018-12-13T16:27:47.376Z,46.40
2018-12-13T16:30:18.670Z,31.60
2018-12-13T16:32:50.421Z,32.47
2018-12-13T16:35:21.256Z,40.70
2018-12-13T16:37:52.086Z,72.63
2018-12-13T16:40:22.888Z,55.07
2018-12-13T16:42:53.723Z,42.67
2018-12-13T16:45:24.666Z,48.03
2018-12-13T16:47:55.532Z,57.50
2018-12-13T16:50:28.199Z,112.87
2018-12-13T16:53:00.399Z,121.13
2018-12-13T16:55:31.278Z,120.07
2018-12-13T16:58:02.360Z,125.03
2018-12-13T17:00:32.990Z,150.13
2018-12-13T17:03:19.491Z,97.43
2018-12-13T17:05:52.579Z,76.17
2018-12-13T17:08:23.884Z,54.87
2018-12-13T17:10:56.448Z,61.23
2018-12-13T17:13:27.398Z,55.77
2018-12-13T17:15:58.080Z,54.13
2018-12-13T17:18:28.960Z,53.53
2018-12-13T17:20:59.695Z,45.33
2018-12-13T17:23:30.485Z,55.87
2018-12-13T17:26:01.223Z,61.30
2018-12-13T17:28:33.378Z,64.47
2018-12-13T17:31:04.471Z,47.33
2018-12-13T17:33:35.387Z,45.53
2018-12-13T17:36:07.254Z,47.87
2018-12-13T17:38:38.207Z,70.43
2018-12-13T17:41:09.968Z,104.33
2018-12-13T17:43:41.648Z,139.90
2018-12-13T17:46:12.934Z,122.73
2018-12-13T17:48:43.641Z,76.27
2018-12-13T17:51:14.816Z,77.90
2018-12-13T17:53:45.487Z,81.90
2018-12-13T17:56:16.466Z,79.93
2018-12-13T17:58:46.991Z,92.07
2018-12-13T18:01:18.019Z,77.40
2018-12-13T18:03:49.065Z,63.23
2018-12-13T18:06:22.218Z,53.30
2018-12-13T18:08:53.030Z,55.37
2018-12-13T18:11:24.371Z,39.83
2018-12-13T18:13:56.625Z,40.00
2018-12-13T18:16:27.506Z,66.57
2018-12-13T18:18:58.602Z,57.87
2018-12-13T18:21:29.519Z,38.47
2018-12-13T18:24:00.598Z,47.47
2018-12-13T18:26:31.914Z,45.43
2018-12-13T18:29:02.791Z,36.47
2018-12-13T18:31:33.648Z,43.30
2018-12-13T18:34:04.970Z,54.37
2018-12-13T18:36:35.731Z,53.30
2018-12-13T18:39:08.926Z,51.60
2018-12-13T18:41:40.198Z,55.10
2018-12-13T18:44:11.090Z,55.20
2018-12-13T18:46:42.026Z,62.77
2018-12-13T18:49:12.717Z,60.57
2018-12-13T18:51:43.290Z,64.67
2018-12-13T18:54:14.768Z,60.67
2018-12-13T18:56:46.661Z,57.17
2018-12-13T18:59:17.338Z,66.77
2018-12-13T19:01:48.005Z,64.03
2018-12-13T19:04:18.673Z,80.97
2018-12-13T19:06:49.450Z,79.67
2018-12-13T19:09:20.199Z,74.17
2018-12-13T19:11:51.499Z,75.63
2018-12-13T19:14:22.159Z,81.00
2018-12-13T19:16:53.666Z,83.43
2018-12-13T19:19:24.374Z,94.93
2018-12-13T19:21:55.032Z,86.37
2018-12-13T19:24:25.742Z,85.70
2018-12-13T19:29:44.421Z,83.73
2018-12-13T19:32:15.455Z,83.80
2018-12-13T19:34:46.114Z,71.83
2018-12-13T19:37:16.886Z,74.80
2018-12-13T19:39:47.977Z,69.07
2018-12-13T19:42:18.694Z,68.07
2018-12-13T19:44:51.026Z,70.60
2018-12-13T19:47:22.264Z,70.07
2018-12-13T19:49:54.573Z,64.60
2018-12-13T19:52:27.198Z,64.97
2018-12-13T19:54:58.022Z,48.43
2018-12-13T19:57:28.629Z,51.33
2018-12-13T19:59:59.288Z,63.27
2018-12-13T20:02:30.086Z,61.77
2018-12-13T20:05:01.090Z,65.27
2018-12-13T20:07:32.083Z,72.70
2018-12-13T20:10:02.851Z,61.37
2018-12-13T20:12:33.639Z,70.00
2018-12-13T20:15:04.264Z,72.30
2018-12-13T20:17:35.427Z,66.67
2018-12-13T20:20:07.048Z,44.17
2018-12-13T20:22:38.329Z,53.60
2018-12-13T20:25:10.013Z,65.50
2018-12-13T20:27:40.575Z,63.63
2018-12-13T20:30:11.136Z,62.83
2018-12-13T20:32:41.758Z,52.87
2018-12-13T20:35:12.812Z,50.27
2018-12-13T20:37:43.528Z,64.90
2018-12-13T20:40:14.235Z,41.37
2018-12-13T20:42:44.737Z,44.23
2018-12-13T20:45:15.725Z,56.77
2018-12-13T20:47:47.425Z,69.40
2018-12-13T20:50:18.880Z,67.87
2018-12-13T20:52:49.519Z,75.93
2018-12-13T20:55:21.013Z,70.37
2018-12-13T20:57:51.736Z,53.00
2018-12-13T21:00:22.874Z,61.73
2018-12-13T21:02:53.482Z,65.03
2018-12-13T21:05:24.102Z,77.30
2018-12-13T21:07:59.119Z,68.20
2018-12-13T21:10:30.349Z,70.03
2018-12-13T21:13:00.893Z,73.57
2018-12-13T21:15:31.517Z,54.53
2018-12-13T21:18:02.494Z,55.40
2018-12-13T21:20:32.997Z,57.37
2018-12-13T21:23:03.862Z,60.10
2018-12-13T21:25:34.884Z,43.77
2018-12-13T21:28:05.674Z,48.47
2018-12-13T21:30:36.298Z,51.40
2018-12-13T21:33:06.959Z,42.43
2018-12-13T21:35:37.733Z,32.90
2018-12-13T21:38:09.355Z,44.30
2018-12-13T21:40:41.829Z,42.40
2018-12-13T21:43:12.662Z,41.80
2018-12-13T21:45:43.251Z,55.77
2018-12-13T21:48:14.029Z,45.63
2018-12-13T21:50:44.843Z,47.37
2018-12-13T21:53:15.598Z,66.60
2018-12-13T21:55:47.529Z,62.57
2018-12-13T21:58:18.199Z,52.80
2018-12-13T22:00:49.595Z,38.50
2018-12-13T22:03:28.701Z,44.20
2018-12-13T22:06:00.696Z,42.87
2018-12-13T22:08:31.656Z,41.30
2018-12-13T22:11:02.447Z,41.47
2018-12-13T22:13:33.381Z,36.87
2018-12-13T22:16:04.140Z,37.50
2018-12-13T22:18:35.954Z,42.30
2018-12-13T22:21:06.737Z,42.73
2018-12-13T22:23:37.336Z,41.17
2018-12-13T22:26:09.038Z,34.13
2018-12-13T22:28:46.224Z,35.37
2018-12-13T22:31:17.762Z,41.27
2018-12-13T22:33:48.329Z,37.47
2018-12-13T22:36:18.962Z,44.40
2018-12-13T22:38:50.178Z,46.93
2018-12-13T22:41:26.186Z,47.33
2018-12-13T22:43:53.723Z,41.83
2018-12-13T22:46:24.260Z,43.27
2018-12-13T22:48:54.782Z,42.80
2018-12-13T22:51:25.350Z,51.10
2018-12-13T22:53:55.899Z,55.90
2018-12-13T22:56:26.430Z,49.47
2018-12-13T22:58:56.955Z,51.13
2018-12-13T23:01:27.465Z,51.37
2018-12-13T23:03:58.174Z,53.77
2018-12-13T23:06:28.747Z,55.00
2018-12-13T23:08:59.303Z,55.17
2018-12-13T23:11:32.658Z,46.53
2018-12-13T23:14:03.578Z,41.80
2018-12-13T23:16:34.183Z,41.60
2018-12-13T23:19:04.830Z,38.23
2018-12-13T23:21:35.421Z,35.53
2018-12-13T23:24:06.196Z,34.70
2018-12-13T23:26:37.040Z,41.30
2018-12-13T23:29:07.887Z,45.53
2018-12-13T23:31:38.363Z,41.00
2018-12-13T23:34:08.910Z,39.90
2018-12-13T23:36:39.475Z,41.73
2018-12-13T23:39:10.146Z,45.40
2018-12-13T23:41:40.948Z,46.30
2018-12-13T23:44:11.614Z,47.43
2018-12-13T23:46:42.151Z,47.73
2018-12-13T23:49:12.769Z,51.87
2018-12-13T23:51:43.750Z,42.60
2018-12-13T23:54:14.452Z,47.73
2018-12-13T23:56:45.000Z,47.03
2018-12-13T23:59:17.756Z,47.27
